Time;durP1;ratioP1;P1;durP2;ratioP2;P2;SDS_P1;SDS_P2;PMS_P1;PMS_P2;Temp;Humidity;BMP_temperature;BMP_pressure;BME280_temperature;BME280_humidity;BME280_pressure;Samples;Min_cycle;Max_cycle;Signal;HPM_P1;HPM_P2
2022/01/31 00:02:10;;;;;;;10.07;2.72;;;;;;;1.53;54.32;94657.78;5112109;28;20031;-67
2022/01/31 00:04:35;;;;;;;10.63;2.95;;;;;;;1.60;54.05;94660.84;5123239;27;20450;-66
2022/01/31 00:07:02;;;;;;;12.70;2.92;;;;;;;1.65;54.20;94658.91;5114178;27;20024;-66
2022/01/31 00:09:28;;;;;;;8.48;2.80;;;;;;;1.62;54.49;94656.50;5114394;27;20031;-66
2022/01/31 00:11:58;;;;;;;18.55;3.95;;;;;;;1.61;54.26;94665.06;5121429;27;20149;-66
2022/01/31 00:14:35;;;;;;;14.77;3.65;;;;;;;1.50;54.27;94657.09;5110721;28;20027;-66
2022/01/31 00:17:00;;;;;;;12.07;3.40;;;;;;;1.56;54.60;94662.75;5112249;28;20115;-66
2022/01/31 00:19:26;;;;;;;15.70;4.20;;;;;;;1.51;54.83;94653.66;5110535;28;20095;-66
2022/01/31 00:21:51;;;;;;;10.80;4.00;;;;;;;1.50;54.70;94651.97;5110560;28;20036;-66
2022/01/31 00:24:17;;;;;;;16.45;3.33;;;;;;;1.55;54.46;94655.13;5110451;28;20031;-66
2022/01/31 00:26:42;;;;;;;9.60;2.83;;;;;;;1.58;54.86;94666.97;5093064;28;20405;-66
2022/01/31 00:29:08;;;;;;;12.48;3.30;;;;;;;1.52;54.68;94665.53;5110365;28;20023;-66
2022/01/31 00:31:33;;;;;;;13.85;3.17;;;;;;;1.54;55.40;94672.22;5110504;28;20039;-66
2022/01/31 00:33:59;;;;;;;15.70;3.88;;;;;;;1.42;54.90;94654.94;5110190;28;20429;-66
2022/01/31 00:36:24;;;;;;;6.18;2.90;;;;;;;1.50;54.65;94669.88;5100067;27;20420;-66
2022/01/31 00:38:49;;;;;;;14.93;3.78;;;;;;;1.55;54.86;94666.19;5130744;27;20394;-66
2022/01/31 00:41:15;;;;;;;9.82;3.22;;;;;;;1.52;55.28;94656.09;5132319;27;20465;-66
2022/01/31 00:43:43;;;;;;;12.82;2.72;;;;;;;1.51;54.27;94671.56;5130784;27;20031;-66
2022/01/31 00:46:12;;;;;;;12.90;3.85;;;;;;;1.43;54.71;94663.44;5130796;27;20477;-66
2022/01/31 00:48:44;;;;;;;9.73;2.63;;;;;;;1.52;55.28;94680.88;5130745;27;20037;-66
2022/01/31 00:51:09;;;;;;;8.80;3.55;;;;;;;1.47;54.55;94672.59;5110216;28;20044;-66
2022/01/31 00:53:35;;;;;;;9.95;2.65;;;;;;;1.49;54.66;94687.00;5110024;28;20028;-67
2022/01/31 00:56:00;;;;;;;8.85;2.55;;;;;;;1.47;54.44;94682.84;5127287;27;20035;-66
2022/01/31 00:58:26;;;;;;;12.02;2.78;;;;;;;1.57;54.92;94689.19;5111351;28;20035;-66
2022/01/31 01:00:51;;;;;;;15.85;2.80;;;;;;;1.51;54.59;94674.13;5127161;28;20035;-66
2022/01/31 01:03:17;;;;;;;7.32;2.53;;;;;;;1.56;54.76;94692.63;5111249;28;20028;-66
2022/01/31 01:05:42;;;;;;;5.95;2.75;;;;;;;1.51;54.83;94679.25;5111026;28;20088;-66
2022/01/31 01:08:08;;;;;;;7.43;2.55;;;;;;;1.37;54.78;94658.63;5109949;28;20035;-66
2022/01/31 01:10:33;;;;;;;17.65;3.88;;;;;;;1.45;54.72;94685.50;5127025;28;20073;-66
2022/01/31 01:12:58;;;;;;;11.35;2.90;;;;;;;1.38;54.50;94681.56;5109926;28;20023;-66
2022/01/31 01:15:24;;;;;;;12.23;3.20;;;;;;;1.42;55.56;94674.56;5109817;28;20031;-66
2022/01/31 01:17:49;;;;;;;10.02;2.63;;;;;;;1.25;55.35;94660.03;5126959;28;20035;-66
2022/01/31 01:20:15;;;;;;;7.38;2.47;;;;;;;1.40;55.51;94679.78;5126956;28;20553;-66
2022/01/31 01:22:41;;;;;;;9.43;2.78;;;;;;;1.41;55.46;94663.50;5109836;28;20451;-67
2022/01/31 01:25:07;;;;;;;11.68;2.72;;;;;;;1.42;55.07;94674.56;5109799;28;20168;-66
2022/01/31 01:27:33;;;;;;;15.38;3.25;;;;;;;1.40;55.51;94663.59;5131064;28;20055;-67
2022/01/31 01:29:58;;;;;;;9.48;3.22;;;;;;;1.44;55.24;94667.63;5112994;28;20031;-66
2022/01/31 01:32:26;;;;;;;8.35;3.22;;;;;;;1.40;55.24;94666.16;5130264;28;20038;-66
2022/01/31 01:34:53;;;;;;;12.40;2.90;;;;;;;1.43;54.61;94671.94;5130123;28;20108;-66
2022/01/31 01:37:18;;;;;;;15.00;3.45;;;;;;;1.42;55.45;94666.88;5115593;28;20096;-66
2022/01/31 01:39:45;;;;;;;13.13;3.15;;;;;;;1.46;55.20;94656.41;5079582;28;20452;-66
2022/01/31 01:42:11;;;;;;;12.18;2.72;;;;;;;1.43;54.98;94664.25;5113694;28;20032;-66
2022/01/31 01:44:58;;;;;;;17.63;3.72;;;;;;;1.45;54.44;94659.03;5096588;28;20496;-66
2022/01/31 01:47:24;;;;;;;13.68;2.97;;;;;;;1.45;55.22;94659.91;5114771;28;20386;-66
2022/01/31 01:49:50;;;;;;;6.70;2.50;;;;;;;1.37;54.52;94667.13;5096329;28;20063;-66
2022/01/31 01:52:16;;;;;;;10.85;2.55;;;;;;;1.29;54.83;94649.56;5113422;28;20098;-66
2022/01/31 01:54:42;;;;;;;7.22;2.55;;;;;;;1.33;54.61;94668.97;5113262;28;20045;-66
2022/01/31 01:57:07;;;;;;;6.55;2.45;;;;;;;1.33;54.36;94661.31;5113370;28;20489;-66
2022/01/31 01:59:35;;;;;;;10.13;2.63;;;;;;;1.39;53.94;94659.34;5114714;28;20144;-66
2022/01/31 02:02:04;;;;;;;8.60;2.50;;;;;;;1.21;53.73;94656.81;5114455;28;20035;-66
2022/01/31 02:04:30;;;;;;;12.68;3.55;;;;;;;1.28;54.54;94647.94;5114347;28;20059;-66
2022/01/31 02:06:55;;;;;;;6.00;2.70;;;;;;;1.35;54.88;94671.47;5096159;28;20036;-66
2022/01/31 02:09:26;;;;;;;10.00;3.15;;;;;;;1.18;54.38;94654.41;5112971;28;20028;-66
2022/01/31 02:11:54;;;;;;;8.25;2.40;;;;;;;1.31;53.81;94675.13;5096917;28;20031;-66
2022/01/31 02:14:23;;;;;;;11.13;2.20;;;;;;;1.26;53.44;94649.72;5096240;28;20063;-66
2022/01/31 02:16:50;;;;;;;9.73;2.55;;;;;;;1.33;53.66;94666.44;5112888;28;20024;-66
2022/01/31 02:19:17;;;;;;;11.23;2.80;;;;;;;1.31;54.19;94660.56;5112869;28;20039;-66
2022/01/31 02:21:43;;;;;;;7.43;2.42;;;;;;;1.34;54.09;94673.22;5079299;28;20406;-66
2022/01/31 02:24:08;;;;;;;6.18;2.67;;;;;;;1.36;53.56;94675.69;5095889;28;20110;-66
2022/01/31 02:26:34;;;;;;;10.27;2.20;;;;;;;1.31;52.87;94668.25;5095905;28;20020;-66
2022/01/31 02:28:59;;;;;;;7.25;2.50;;;;;;;1.46;53.53;94676.09;5112728;28;20095;-66
2022/01/31 02:31:24;;;;;;;8.52;2.45;;;;;;;1.51;53.60;94671.56;5114379;28;20027;-66
2022/01/31 02:33:50;;;;;;;7.78;2.50;;;;;;;1.57;53.67;94678.94;5112575;28;20038;-66
2022/01/31 02:36:15;;;;;;;9.13;2.60;;;;;;;1.38;53.33;94655.16;5112856;27;20073;-66
2022/01/31 02:38:41;;;;;;;7.45;2.30;;;;;;;1.59;53.59;94677.13;5113820;28;20418;-66
2022/01/31 02:41:06;;;;;;;14.90;2.72;;;;;;;1.58;53.83;94679.75;5114008;28;20028;-66
2022/01/31 02:43:32;;;;;;;10.30;2.92;;;;;;;1.55;53.67;94686.69;5112694;28;20027;-66
2022/01/31 02:45:58;;;;;;;12.23;3.20;;;;;;;1.58;53.04;94683.13;5112429;28;20031;-66
2022/01/31 02:48:25;;;;;;;6.97;3.20;;;;;;;1.54;53.31;94673.97;5111625;28;20047;-68
2022/01/31 02:50:51;;;;;;;9.75;2.85;;;;;;;1.52;54.15;94680.88;5113514;27;20122;-66
2022/01/31 02:53:25;;;;;;;14.23;2.63;;;;;;;1.52;54.38;94688.56;5115668;27;20023;-66
2022/01/31 02:55:51;;;;;;;10.52;2.80;;;;;;;1.56;53.93;94680.66;5132840;27;20553;-66
2022/01/31 02:58:17;;;;;;;8.32;2.60;;;;;;;1.51;54.38;94685.19;5132752;27;20079;-66
2022/01/31 03:00:42;;;;;;;6.35;3.05;;;;;;;1.54;54.24;94684.22;5132678;27;20035;-66
2022/01/31 03:03:08;;;;;;;9.93;3.17;;;;;;;1.53;54.32;94690.22;5115459;27;20031;-66
2022/01/31 03:05:33;;;;;;;9.02;2.55;;;;;;;1.41;53.93;94688.28;5132600;27;20027;-66
2022/01/31 03:07:59;;;;;;;10.10;2.70;;;;;;;1.40;53.63;94686.63;5132561;27;20485;-66
2022/01/31 03:10:24;;;;;;;5.28;1.85;;;;;;;1.30;53.80;94679.38;5098248;27;20466;-66
2022/01/31 03:12:50;;;;;;;11.52;2.90;;;;;;;1.34;53.31;94691.13;5115332;27;20042;-66
2022/01/31 03:15:15;;;;;;;6.95;2.20;;;;;;;1.38;53.15;94696.94;5132270;27;20052;-66
2022/01/31 03:17:46;;;;;;;7.78;2.22;;;;;;;1.39;53.52;94705.44;5132377;27;20031;-66
2022/01/31 03:20:11;;;;;;;9.65;2.35;;;;;;;1.40;53.65;94696.88;5115921;27;20079;-66
2022/01/31 03:22:36;;;;;;;9.57;2.28;;;;;;;1.30;53.70;94681.94;5115197;27;20114;-65
2022/01/31 03:25:02;;;;;;;7.45;2.20;;;;;;;1.46;54.41;94682.03;5132140;27;20046;-66
2022/01/31 03:27:28;;;;;;;7.85;1.92;;;;;;;1.49;53.73;94681.03;5133651;27;20413;-67
2022/01/31 03:29:56;;;;;;;11.02;2.42;;;;;;;1.39;53.98;94672.97;5132026;27;20034;-66
2022/01/31 03:32:21;;;;;;;7.53;2.85;;;;;;;1.46;54.06;94676.91;5132130;27;20031;-66
2022/01/31 03:34:46;;;;;;;9.48;3.15;;;;;;;1.41;53.65;94678.03;5133124;27;20396;-66
2022/01/31 03:37:12;;;;;;;7.18;2.53;;;;;;;1.39;52.81;94684.94;5132045;27;20039;-66
2022/01/31 03:39:37;;;;;;;11.18;2.42;;;;;;;1.32;53.40;94682.69;5131936;27;20408;-66
2022/01/31 03:42:03;;;;;;;8.95;2.20;;;;;;;1.33;53.46;94674.09;5133127;27;20031;-66
2022/01/31 03:44:29;;;;;;;9.57;2.53;;;;;;;1.31;53.59;94681.06;5114670;27;20015;-66
2022/01/31 03:46:55;;;;;;;9.82;2.28;;;;;;;1.39;53.21;94690.06;5097929;27;20035;-66
2022/01/31 03:49:21;;;;;;;6.82;1.90;;;;;;;1.32;53.47;94677.59;5127211;27;20064;-66
2022/01/31 03:51:46;;;;;;;6.65;2.10;;;;;;;1.27;53.08;94676.97;5112413;28;20052;-66
2022/01/31 03:54:12;;;;;;;10.25;2.35;;;;;;;1.37;53.04;94686.78;5077129;28;20028;-66
2022/01/31 03:56:37;;;;;;;15.48;4.70;;;;;;;1.40;53.10;94686.63;5094260;28;20035;-66
2022/01/31 03:59:03;;;;;;;10.15;2.65;;;;;;;1.27;53.33;94682.09;5110828;28;20028;-66
2022/01/31 04:01:28;;;;;;;9.45;3.47;;;;;;;1.38;52.94;94689.25;5093202;28;20455;-66
2022/01/31 04:03:54;;;;;;;7.93;3.50;;;;;;;1.37;53.45;94691.91;5110920;28;20031;-66
2022/01/31 04:06:19;;;;;;;12.32;4.57;;;;;;;1.41;53.54;94688.28;5094014;28;20039;-66
2022/01/31 04:08:45;;;;;;;6.25;2.75;;;;;;;1.42;53.29;94688.22;5112039;28;20515;-66
2022/01/31 04:11:10;;;;;;;7.00;2.47;;;;;;;1.46;52.92;94683.75;5111014;28;20034;-66
2022/01/31 04:13:36;;;;;;;8.60;2.85;;;;;;;1.44;53.44;94683.00;5110862;28;20031;-67
2022/01/31 04:16:02;;;;;;;5.20;2.30;;;;;;;1.40;53.08;94686.63;5093976;28;20079;-67
2022/01/31 04:18:28;;;;;;;10.13;2.78;;;;;;;1.42;54.00;94674.56;5093811;28;20031;-65
2022/01/31 04:20:54;;;;;;;11.48;5.00;;;;;;;1.44;52.99;94685.56;5110750;28;20096;-66
2022/01/31 04:23:20;;;;;;;9.10;4.13;;;;;;;1.38;52.93;94681.56;5112141;28;20335;-66
2022/01/31 04:31:24;;;;;;;11.30;5.30;;;;;;;1.36;53.60;94688.47;5110858;28;20066;-67
2022/01/31 04:33:50;;;;;;;12.20;5.70;;;;;;;1.41;54.07;94678.03;5110584;28;20028;-67
2022/01/31 04:36:16;;;;;;;9.45;3.28;;;;;;;1.28;53.54;94673.53;5076680;28;20115;-67
2022/01/31 04:38:42;;;;;;;11.30;2.58;;;;;;;1.30;53.31;94673.44;5110462;27;20123;-67
2022/01/31 04:41:07;;;;;;;15.73;7.82;;;;;;;1.30;53.28;94674.25;5110111;28;20028;-67
2022/01/31 04:43:33;;;;;;;7.60;4.35;;;;;;;1.29;53.61;94675.16;5093375;28;20424;-67
2022/01/31 04:46:01;;;;;;;7.88;2.58;;;;;;;1.17;53.41;94690.28;5093378;28;20036;-67
2022/01/31 04:48:27;;;;;;;10.82;2.92;;;;;;;1.05;53.51;94686.59;5110115;28;20036;-67
2022/01/31 04:50:52;;;;;;;10.00;2.40;;;;;;;1.12;54.41;94677.72;5107742;28;20047;-67
2022/01/31 04:53:18;;;;;;;7.18;2.67;;;;;;;1.10;54.04;94670.09;5093182;28;20016;-67
2022/01/31 04:55:43;;;;;;;7.40;2.53;;;;;;;1.06;53.99;94681.41;5110085;28;20036;-67
2022/01/31 04:58:09;;;;;;;152.85;65.03;;;;;;;1.05;54.58;94671.22;5093087;28;20490;-67
2022/01/31 05:00:35;;;;;;;39.33;18.73;;;;;;;1.07;53.96;94672.81;5093125;28;20482;-67
2022/01/31 05:03:00;;;;;;;12.65;4.13;;;;;;;0.91;54.58;94664.22;5110057;28;20028;-67
2022/01/31 05:05:26;;;;;;;12.75;2.88;;;;;;;0.94;54.39;94665.81;5110161;28;20027;-67
2022/01/31 05:07:54;;;;;;;9.20;2.85;;;;;;;0.91;54.15;94663.38;5093003;28;20063;-67
2022/01/31 05:10:19;;;;;;;10.70;4.85;;;;;;;0.93;54.49;94661.59;5111428;28;20161;-67
2022/01/31 05:12:45;;;;;;;10.23;3.20;;;;;;;0.89;54.77;94653.22;5095544;28;20604;-68
2022/01/31 05:15:10;;;;;;;8.15;2.75;;;;;;;0.75;54.61;94664.09;5096864;28;20027;-67
2022/01/31 05:17:36;;;;;;;11.23;3.75;;;;;;;0.69;54.53;94661.84;5114412;28;20030;-67
2022/01/31 05:20:02;;;;;;;6.80;2.28;;;;;;;0.69;54.04;94659.28;5114009;28;20050;-67
2022/01/31 05:22:27;;;;;;;6.55;2.65;;;;;;;0.61;54.64;94676.69;5118036;27;20672;-67
2022/01/31 05:24:52;;;;;;;11.50;3.05;;;;;;;0.56;54.63;94678.66;5130885;27;20031;-67
2022/01/31 05:27:18;;;;;;;8.07;2.47;;;;;;;0.42;54.78;94662.22;5115237;28;20080;-66
2022/01/31 05:29:43;;;;;;;12.90;4.35;;;;;;;0.46;55.10;94669.75;5115012;28;20027;-67
2022/01/31 05:32:09;;;;;;;17.45;8.07;;;;;;;0.47;55.30;94669.66;5113916;28;20038;-67
2022/01/31 05:34:34;;;;;;;9.95;3.80;;;;;;;0.54;55.66;94670.22;5114903;28;20023;-67
2022/01/31 05:37:00;;;;;;;8.48;2.83;;;;;;;0.54;55.27;94667.69;5101356;27;20493;-67
2022/01/31 05:39:25;;;;;;;7.78;3.38;;;;;;;0.42;55.65;94685.22;5114871;28;20028;-67
2022/01/31 05:41:52;;;;;;;10.70;2.60;;;;;;;0.40;55.25;94661.47;5113675;28;20024;-67
2022/01/31 05:44:17;;;;;;;9.52;3.10;;;;;;;0.43;54.98;94663.06;5096854;28;20024;-65
2022/01/31 05:46:43;;;;;;;9.88;2.83;;;;;;;0.55;55.20;94677.00;5096632;28;20081;-65
2022/01/31 05:49:08;;;;;;;12.43;3.22;;;;;;;0.59;55.27;94678.53;5114596;28;20019;-65
2022/01/31 05:51:33;;;;;;;9.43;4.03;;;;;;;0.42;54.98;94669.91;5113555;28;20047;-65
2022/01/31 05:53:59;;;;;;;7.63;3.33;;;;;;;0.56;55.95;94694.00;5079343;28;20467;-65
2022/01/31 05:56:24;;;;;;;6.90;3.88;;;;;;;0.53;56.73;94697.53;5115049;28;20031;-65
2022/01/31 05:58:50;;;;;;;8.35;3.22;;;;;;;0.53;55.67;94696.69;5115455;27;20039;-65
2022/01/31 06:01:16;;;;;;;8.38;4.32;;;;;;;0.56;55.95;94694.81;5130487;27;20041;-65
2022/01/31 06:03:42;;;;;;;7.90;3.30;;;;;;;0.47;56.08;94690.13;5154573;27;20026;-65
2022/01/31 06:06:07;;;;;;;8.75;3.03;;;;;;;0.43;56.35;94689.44;5127599;27;20079;-65
2022/01/31 06:08:32;;;;;;;13.57;3.92;;;;;;;0.47;56.25;94699.50;5134945;27;20544;-65
2022/01/31 06:10:58;;;;;;;9.73;3.20;;;;;;;0.38;55.85;94690.53;5116528;27;20023;-66
2022/01/31 06:13:27;;;;;;;5.35;2.60;;;;;;;0.46;55.50;94696.13;5134604;27;20035;-65
2022/01/31 06:15:52;;;;;;;8.50;3.13;;;;;;;0.57;55.49;94693.91;5133547;27;20042;-65
2022/01/31 06:18:18;;;;;;;14.10;4.13;;;;;;;0.55;55.21;94682.09;5133451;27;20471;-65
2022/01/31 06:20:44;;;;;;;8.35;2.97;;;;;;;0.67;55.03;94684.13;5094207;27;20030;-65
2022/01/31 06:23:09;;;;;;;16.15;6.63;;;;;;;0.69;54.94;94673.78;5108628;28;20456;-65
2022/01/31 06:25:35;;;;;;;11.10;4.20;;;;;;;0.75;54.88;94688.84;5114037;28;20024;-65
2022/01/31 06:28:00;;;;;;;11.38;2.90;;;;;;;0.72;54.25;94679.59;5122112;27;20035;-65
2022/01/31 06:30:26;;;;;;;10.73;3.42;;;;;;;0.71;53.44;94662.59;5132423;27;20027;-66
2022/01/31 06:32:53;;;;;;;23.35;11.43;;;;;;;0.79;54.43;94675.03;5116026;27;20038;-65
2022/01/31 06:35:18;;;;;;;12.63;7.03;;;;;;;0.55;53.65;94662.47;5134514;27;20394;-66
2022/01/31 06:37:43;;;;;;;13.00;4.30;;;;;;;0.56;53.74;94665.88;5132534;27;20039;-65
2022/01/31 06:40:09;;;;;;;13.75;4.63;;;;;;;0.51;53.01;94660.16;5113353;28;20035;-65
2022/01/31 06:42:34;;;;;;;9.57;4.97;;;;;;;0.48;52.49;94653.44;5112494;28;20032;-65
2022/01/31 06:45:00;;;;;;;8.48;3.50;;;;;;;0.51;52.43;94655.03;5112403;28;20067;-65
2022/01/31 06:47:25;;;;;;;11.40;4.55;;;;;;;0.61;52.56;94653.69;5126735;27;20057;-67
2022/01/31 06:49:51;;;;;;;8.35;3.30;;;;;;;0.73;52.68;94668.47;5129138;27;20050;-65
2022/01/31 06:52:17;;;;;;;8.50;3.75;;;;;;;0.74;52.30;94671.84;5104757;28;20058;-65
2022/01/31 06:54:43;;;;;;;11.02;7.10;;;;;;;0.68;52.15;94672.97;5113238;28;20034;-66
2022/01/31 06:57:09;;;;;;;10.43;4.60;;;;;;;0.62;51.17;94668.16;5113425;28;20027;-65
2022/01/31 06:59:34;;;;;;;10.07;4.50;;;;;;;0.71;51.17;94666.88;5113352;28;20026;-65
2022/01/31 07:02:00;;;;;;;12.45;6.70;;;;;;;0.72;51.47;94664.25;5112030;27;20036;-65
2022/01/31 07:04:25;;;;;;;11.07;5.88;;;;;;;0.75;51.37;94658.16;5094937;28;20031;-65
2022/01/31 07:06:51;;;;;;;16.65;8.48;;;;;;;0.87;51.04;94660.97;5127902;27;20023;-65
2022/01/31 07:09:16;;;;;;;14.60;7.07;;;;;;;0.97;50.98;94652.88;5115329;27;20054;-65
2022/01/31 07:11:43;;;;;;;9.35;4.00;;;;;;;0.93;50.86;94641.13;5134239;27;20035;-65
2022/01/31 07:14:29;;;;;;;28.40;13.30;;;;;;;1.03;50.64;94622.72;5133556;27;20102;-65
2022/01/31 07:16:53;;;;;;;18.35;9.93;;;;;;;1.07;50.09;94613.97;5118204;27;20124;-65
2022/01/31 07:19:22;;;;;;;10.27;4.78;;;;;;;0.93;49.97;94623.22;5107775;28;20417;-66
2022/01/31 07:21:50;;;;;;;7.15;2.90;;;;;;;0.88;49.25;94611.47;5120878;27;20035;-65
2022/01/31 07:26:47;;;;;;;40.53;26.80;;;;;;;1.02;49.07;94615.91;5122500;27;20418;-65
2022/01/31 07:29:12;;;;;;;18.92;11.90;;;;;;;1.02;48.39;94620.22;5119669;27;20036;-65
2022/01/31 07:31:38;;;;;;;52.85;30.25;;;;;;;1.15;48.08;94636.63;5125173;27;20035;-65
2022/01/31 07:34:04;;;;;;;12.05;5.13;;;;;;;1.16;46.79;94635.72;5124316;27;20493;-65
2022/01/31 07:36:29;;;;;;;14.63;8.80;;;;;;;1.34;46.17;94631.44;5127455;27;20042;-67
2022/01/31 07:38:55;;;;;;;14.52;8.20;;;;;;;1.62;46.86;94604.47;5099207;27;20031;-64
2022/01/31 07:41:20;;;;;;;16.13;7.75;;;;;;;1.96;45.52;94594.09;5120683;27;20066;-64
2022/01/31 07:43:46;;;;;;;12.25;4.35;;;;;;;2.41;44.13;94599.41;5126142;27;20023;-64
2022/01/31 07:46:12;;;;;;;16.63;7.13;;;;;;;2.89;43.67;94610.44;5115667;27;20054;-66
2022/01/31 07:48:38;;;;;;;10.45;4.20;;;;;;;3.33;41.44;94597.66;5124264;27;20042;-66
2022/01/31 07:51:03;;;;;;;8.65;3.42;;;;;;;3.77;40.74;94593.41;5107632;28;20118;-64
2022/01/31 07:53:29;;;;;;;24.10;11.63;;;;;;;4.15;40.22;94610.81;5115807;27;20031;-65
2022/01/31 07:55:54;;;;;;;8.35;3.47;;;;;;;4.44;38.68;94604.72;5122710;27;20031;-66
2022/01/31 07:58:20;;;;;;;13.15;6.50;;;;;;;4.81;38.96;94599.81;5117656;27;20057;-67
2022/01/31 08:00:45;;;;;;;11.07;4.85;;;;;;;5.07;38.12;94590.44;5127409;27;20027;-65
2022/01/31 08:03:11;;;;;;;11.85;4.10;;;;;;;5.27;37.75;94593.47;5119035;27;20053;-66
2022/01/31 08:05:36;;;;;;;7.30;2.67;;;;;;;5.59;38.04;94597.31;5117066;27;20019;-66
2022/01/31 08:08:02;;;;;;;7.75;2.85;;;;;;;5.70;36.15;94594.00;5117316;27;20039;-66
2022/01/31 08:10:27;;;;;;;50.75;25.05;;;;;;;5.59;37.76;94596.47;5124273;27;20488;-66
2022/01/31 08:12:55;;;;;;;23.48;13.57;;;;;;;5.66;37.01;94594.34;5119316;27;20031;-66
2022/01/31 08:15:25;;;;;;;15.20;4.75;;;;;;;5.52;37.00;94592.69;5123547;27;20023;-66
2022/01/31 08:17:51;;;;;;;24.65;9.60;;;;;;;5.41;38.36;94598.53;5093932;28;20304;-66
2022/01/31 08:20:16;;;;;;;24.90;14.25;;;;;;;5.31;37.63;94603.47;5110056;28;20103;-66
2022/01/31 08:22:42;;;;;;;11.27;6.38;;;;;;;5.09;37.73;94601.44;5110954;28;20039;-66
2022/01/31 08:25:13;;;;;;;11.75;6.90;;;;;;;4.94;37.74;94592.16;5110011;28;20035;-66
2022/01/31 08:27:42;;;;;;;5.75;3.08;;;;;;;4.81;38.83;94576.66;5111437;28;20413;-66
2022/01/31 08:30:12;;;;;;;8.70;3.45;;;;;;;4.46;38.80;94574.56;5093692;28;20024;-66
2022/01/31 08:32:44;;;;;;;8.10;3.92;;;;;;;4.19;40.21;94560.88;5110222;28;20027;-66
2022/01/31 08:37:57;;;;;;;7.60;4.00;;;;;;;4.01;39.74;94567.94;5096640;28;20166;-67
2022/01/31 08:40:23;;;;;;;8.77;4.43;;;;;;;3.96;40.25;94573.38;5110324;28;20056;-66
2022/01/31 08:42:48;;;;;;;6.53;3.00;;;;;;;3.71;40.85;94583.50;5110265;28;20086;-66
2022/01/31 08:45:14;;;;;;;8.18;3.35;;;;;;;3.62;41.58;94584.00;5110232;28;20072;-66
2022/01/31 08:47:41;;;;;;;8.75;3.28;;;;;;;3.60;42.24;94575.59;5110886;28;20024;-66
2022/01/31 08:50:08;;;;;;;7.15;2.60;;;;;;;3.52;41.17;94568.34;5093218;28;20134;-71
2022/01/31 08:52:33;;;;;;;20.23;8.43;;;;;;;3.52;41.32;94589.69;5111377;28;20520;-68
2022/01/31 08:54:59;;;;;;;17.08;7.88;;;;;;;3.65;41.79;94573.56;5109979;28;20031;-68
2022/01/31 08:57:24;;;;;;;29.38;12.25;;;;;;;3.79;41.87;94581.28;5110114;28;20032;-68
2022/01/31 08:59:51;;;;;;;22.23;8.40;;;;;;;3.88;40.89;94592.75;5093049;28;20035;-68
2022/01/31 09:02:19;;;;;;;12.73;5.03;;;;;;;3.90;40.57;94584.03;5110100;28;20031;-68
2022/01/31 09:04:51;;;;;;;18.63;8.10;;;;;;;3.96;40.74;94591.38;5109848;28;20042;-68
2022/01/31 09:07:18;;;;;;;21.67;11.00;;;;;;;4.01;41.72;94583.38;5078160;28;20055;-68
2022/01/31 09:09:44;;;;;;;18.63;10.23;;;;;;;4.08;40.38;94581.25;5109905;28;20027;-68
2022/01/31 09:12:10;;;;;;;11.82;4.28;;;;;;;4.05;40.48;94566.03;5110056;28;20386;-68
2022/01/31 09:14:36;;;;;;;11.80;3.92;;;;;;;3.90;39.89;94562.63;5076289;28;20038;-68
2022/01/31 09:17:02;;;;;;;8.40;2.67;;;;;;;3.85;40.37;94542.38;5109950;28;20023;-69
2022/01/31 09:19:27;;;;;;;6.00;2.67;;;;;;;3.86;40.78;94545.75;5109810;28;20024;-68
2022/01/31 09:21:53;;;;;;;9.57;3.28;;;;;;;3.93;41.15;94540.16;5092943;28;20451;-68
2022/01/31 09:24:18;;;;;;;7.93;3.20;;;;;;;4.10;41.59;94538.31;5109723;28;20493;-69
2022/01/31 09:26:44;;;;;;;6.50;2.60;;;;;;;4.15;40.69;94529.38;5109842;28;20028;-69
2022/01/31 09:29:09;;;;;;;13.35;6.88;;;;;;;4.21;39.65;94529.00;5109758;28;20046;-68
2022/01/31 09:31:35;;;;;;;11.82;5.35;;;;;;;4.28;40.00;94529.41;5111515;28;20028;-68
2022/01/31 09:34:00;;;;;;;8.27;3.72;;;;;;;4.24;39.72;94521.09;5109667;28;20081;-68
2022/01/31 09:36:27;;;;;;;11.35;6.25;;;;;;;4.10;39.21;94526.25;5092926;28;20027;-68
2022/01/31 09:38:53;;;;;;;11.55;5.32;;;;;;;4.19;39.39;94519.72;5110843;28;20040;-68
2022/01/31 09:41:22;;;;;;;10.15;4.88;;;;;;;4.11;39.57;94507.34;5092885;28;20405;-69
2022/01/31 09:44:04;;;;;;;7.95;4.20;;;;;;;4.20;40.26;94509.31;5110857;28;20032;-68
2022/01/31 09:46:46;;;;;;;10.80;3.78;;;;;;;4.35;40.17;94499.03;5110101;28;20036;-68
2022/01/31 09:49:12;;;;;;;10.35;3.90;;;;;;;4.38;38.96;94497.06;5109769;28;20114;-68
2022/01/31 09:51:37;;;;;;;10.93;4.32;;;;;;;4.41;40.01;94481.44;5074743;28;20403;-68
2022/01/31 09:54:03;;;;;;;9.38;5.00;;;;;;;4.45;39.73;94467.44;5089056;28;20039;-68
2022/01/31 09:56:37;;;;;;;9.55;4.65;;;;;;;4.40;39.19;94474.66;5089168;28;20031;-68
2022/01/31 09:59:03;;;;;;;9.70;4.15;;;;;;;4.51;39.44;94471.38;5091920;28;20106;-68
2022/01/31 10:01:36;;;;;;;14.15;4.85;;;;;;;4.62;39.32;94470.69;5093159;28;20078;-68
2022/01/31 10:04:09;;;;;;;10.18;4.93;;;;;;;4.65;38.91;94473.06;5076370;28;20027;-68
2022/01/31 10:06:38;;;;;;;6.78;3.00;;;;;;;4.60;38.37;94465.66;5076847;28;20031;-68
2022/01/31 10:09:10;;;;;;;8.10;3.08;;;;;;;4.63;39.14;94460.31;5092718;28;20059;-68
2022/01/31 10:17:07;;;;;;;10.82;3.25;;;;;;;4.38;38.43;94416.53;5094113;28;20054;-68
2022/01/31 10:19:40;;;;;;;10.65;6.90;;;;;;;4.46;39.55;94412.53;5092510;28;20404;-68
2022/01/31 10:22:07;;;;;;;10.23;5.60;;;;;;;4.40;38.75;94402.63;5075506;28;20532;-68
2022/01/31 10:24:34;;;;;;;14.65;6.65;;;;;;;4.43;38.17;94401.59;5075666;28;20043;-68
2022/01/31 10:27:11;;;;;;;9.20;4.70;;;;;;;4.41;37.97;94404.28;5075644;28;20032;-68
2022/01/31 10:29:37;;;;;;;18.58;9.65;;;;;;;4.37;38.64;94394.28;5092407;28;20608;-68
2022/01/31 10:32:05;;;;;;;50.88;18.60;;;;;;;4.48;38.71;94394.41;5092458;28;20115;-68
2022/01/31 10:34:33;;;;;;;142.27;44.97;;;;;;;4.54;37.91;94390.59;5092136;28;20253;-68
2022/01/31 10:37:07;;;;;;;55.45;20.75;;;;;;;4.69;38.06;94380.13;5092208;28;20116;-68
2022/01/31 10:53:46;;;;;;;7.25;4.20;;;;;;;4.99;37.94;94317.22;5096927;28;20030;-72
2022/01/31 10:56:12;;;;;;;22.80;12.10;;;;;;;5.05;37.85;94310.81;5079839;28;20083;-72
2022/01/31 10:59:00;;;;;;;43.58;22.00;;;;;;;5.11;36.35;94310.41;5095260;28;20215;-72
2022/01/31 11:01:26;;;;;;;26.58;14.13;;;;;;;5.11;36.62;94285.47;5112444;28;20115;-72
2022/01/31 11:03:52;;;;;;;37.55;18.10;;;;;;;5.20;37.08;94273.69;5095201;28;20036;-72
2022/01/31 11:06:19;;;;;;;19.55;10.75;;;;;;;5.24;35.67;94272.56;5112233;28;20039;-72
2022/01/31 11:08:44;;;;;;;12.00;3.88;;;;;;;5.29;36.37;94285.94;5095320;28;20062;-72
2022/01/31 11:11:10;;;;;;;36.47;23.27;;;;;;;5.32;37.47;94290.03;5112933;28;20511;-72
2022/01/31 11:13:36;;;;;;;13.68;5.80;;;;;;;5.21;36.57;94265.06;5094868;28;20024;-72
2022/01/31 11:16:04;;;;;;;13.52;4.72;;;;;;;5.28;36.70;94278.31;5113305;28;20032;-72
2022/01/31 11:18:30;;;;;;;13.57;7.10;;;;;;;5.18;36.81;94259.28;5095224;28;20034;-72
2022/01/31 11:21:04;;;;;;;14.25;7.80;;;;;;;5.31;36.15;94266.03;5111810;28;20429;-72
2022/01/31 11:23:32;;;;;;;9.02;3.72;;;;;;;5.43;35.54;94269.47;5111869;28;20038;-72
2022/01/31 11:26:00;;;;;;;9.85;3.47;;;;;;;5.38;35.44;94272.41;5078598;28;20035;-72
2022/01/31 11:28:29;;;;;;;15.13;6.53;;;;;;;5.41;35.37;94276.53;5111537;28;20115;-72
2022/01/31 11:30:54;;;;;;;6.97;2.80;;;;;;;5.37;35.05;94272.50;5094975;28;20042;-72
2022/01/31 11:33:32;;;;;;;7.13;3.47;;;;;;;5.33;35.63;94268.50;5111535;28;20023;-72
2022/01/31 11:35:58;;;;;;;22.40;6.03;;;;;;;5.14;35.25;94256.94;5095785;28;20038;-72
2022/01/31 11:38:23;;;;;;;14.15;6.25;;;;;;;5.13;36.20;94242.41;5111788;28;20035;-72
2022/01/31 11:40:49;;;;;;;19.00;7.50;;;;;;;5.15;35.99;94244.88;5112815;28;20092;-72
2022/01/31 11:43:15;;;;;;;20.63;10.48;;;;;;;5.35;36.00;94243.47;5111393;28;20028;-72
2022/01/31 11:45:41;;;;;;;12.00;5.30;;;;;;;5.37;34.61;94239.84;5112706;28;20032;-72
2022/01/31 11:48:27;;;;;;;17.35;7.50;;;;;;;5.44;35.67;94229.13;5094288;28;20528;-72
2022/01/31 11:50:54;;;;;;;9.40;3.85;;;;;;;5.47;34.00;94227.13;5112146;28;20119;-72
2022/01/31 11:53:33;;;;;;;10.98;6.28;;;;;;;5.54;35.38;94219.78;5094121;28;20028;-72
2022/01/31 11:56:14;;;;;;;26.38;16.00;;;;;;;5.59;34.74;94212.53;5112523;28;20039;-72
2022/01/31 11:58:53;;;;;;;13.90;8.10;;;;;;;5.52;35.06;94206.19;5094963;28;20038;-72
2022/01/31 12:01:19;;;;;;;11.82;4.90;;;;;;;5.49;35.39;94201.25;5111149;28;20028;-72
2022/01/31 12:03:58;;;;;;;11.68;7.43;;;;;;;5.53;35.48;94187.22;5110827;28;20072;-72
2022/01/31 12:06:24;;;;;;;8.07;3.33;;;;;;;5.58;34.82;94191.09;5094164;28;20504;-72